Terminal Aerodrome Forecast
Issued by NWS

Home | Current Version | Previous Version | Text Only | Print | Product List | Glossary On
Versions: 1 2 3 4 5 6 7 8 9 10 11 12 13 14
000
FTAK31 PAJN 041100 CCA
TAFAKT
TAF COR
PAKT 041140Z 0412/0512 13006KT P6SM BKN100
     FM041600 12007KT P6SM VCSH BKN030 OVC050
     FM042200 13010KT P6SM -RA BKN035 OVC050
     FM050300 13012KT 5SM -RA BR BKN025 OVC035
     FM050700 14012KT 3SM -RA BR BKN020 OVC035 WS020/16025KT
      AMD LTD TO CLD VIS AND WIND 0412/0415=

USA.gov is the U.S. government's official web portal to all federal, state and local government web resources and services.